Time;durP1;ratioP1;P1;durP2;ratioP2;P2;SDS_P1;SDS_P2;PMS_P1;PMS_P2;Temp;Humidity;BMP_temperature;BMP_pressure;BME280_temperature;BME280_humidity;BME280_pressure;Samples;Min_cycle;Max_cycle;Signal;HPM_P1;HPM_P2
2022/09/26 00:01:10;;;;;;;12.40;4.72;;;11.70;81.10;;;;;;4897051;29;20476;-74
2022/09/26 00:03:36;;;;;;;10.68;4.55;;;11.80;81.00;;;;;;4917111;28;20040;-73
2022/09/26 00:06:04;;;;;;;11.90;4.72;;;11.80;80.80;;;;;;4916712;29;20425;-72
2022/09/26 00:08:30;;;;;;;12.75;5.00;;;11.80;80.60;;;;;;4920375;28;20080;-72
2022/09/26 00:10:58;;;;;;;12.60;5.43;;;11.80;80.40;;;;;;4918034;29;20059;-72
2022/09/26 00:13:25;;;;;;;10.50;5.35;;;11.80;80.40;;;;;;4921299;29;20035;-72
2022/09/26 00:15:51;;;;;;;12.25;4.50;;;11.80;80.00;;;;;;4928289;28;20063;-76
2022/09/26 00:18:17;;;;;;;8.52;4.18;;;11.80;79.90;;;;;;4913499;29;20123;-75
2022/09/26 00:20:42;;;;;;;11.00;4.50;;;11.80;79.70;;;;;;4922455;28;20130;-71
2022/09/26 00:23:08;;;;;;;9.73;3.65;;;11.90;79.50;;;;;;4934051;28;20514;-72
2022/09/26 00:25:34;;;;;;;9.23;4.05;;;11.80;79.40;;;;;;4910226;29;20430;-72
2022/09/26 00:27:59;;;;;;;12.68;3.90;;;11.90;79.30;;;;;;4921945;29;20044;-72
2022/09/26 00:30:25;;;;;;;9.88;3.55;;;11.90;79.40;;;;;;4921746;28;20043;-71
2022/09/26 00:32:51;;;;;;;10.27;3.53;;;11.90;79.30;;;;;;4924754;29;20119;-74
2022/09/26 00:35:16;;;;;;;9.63;3.47;;;11.90;78.90;;;;;;4923989;28;20523;-74
2022/09/26 00:37:42;;;;;;;11.93;3.30;;;11.90;78.90;;;;;;4924034;29;20032;-73
2022/09/26 00:40:08;;;;;;;11.50;3.40;;;11.90;78.90;;;;;;4919615;29;20036;-72
2022/09/26 00:42:34;;;;;;;8.25;3.58;;;11.90;78.90;;;;;;4923893;29;20024;-72
2022/09/26 00:45:00;;;;;;;10.82;3.17;;;12.00;78.70;;;;;;4902942;29;20090;-72
2022/09/26 00:47:31;;;;;;;9.18;3.15;;;11.90;78.50;;;;;;4923473;29;20032;-74
2022/09/26 00:50:15;;;;;;;10.05;3.50;;;12.00;78.50;;;;;;4918642;28;20055;-72
2022/09/26 00:52:51;;;;;;;8.53;2.80;;;12.00;78.50;;;;;;4916301;29;20036;-72
2022/09/26 00:55:20;;;;;;;6.43;2.35;;;12.00;78.20;;;;;;4928508;28;20086;-73
2022/09/26 00:57:55;;;;;;;7.95;2.72;;;12.10;78.10;;;;;;4913963;29;20036;-76
2022/09/26 01:00:22;;;;;;;6.57;2.92;;;12.10;78.20;;;;;;4920506;29;20072;-76
2022/09/26 01:02:50;;;;;;;8.70;3.10;;;12.10;78.60;;;;;;4918336;29;20476;-74
2022/09/26 01:05:20;;;;;;;6.90;2.55;;;12.10;79.20;;;;;;4902408;29;20535;-74
2022/09/26 01:07:46;;;;;;;6.00;2.85;;;12.10;80.00;;;;;;4919130;29;20039;-71
2022/09/26 01:10:14;;;;;;;8.55;2.97;;;12.10;80.40;;;;;;4916087;29;20086;-72
2022/09/26 01:12:41;;;;;;;7.15;2.85;;;12.10;80.50;;;;;;4919161;29;20099;-72
2022/09/26 01:15:07;;;;;;;7.55;3.08;;;12.00;80.50;;;;;;4919532;29;20036;-71
2022/09/26 01:17:35;;;;;;;10.50;3.33;;;12.00;80.90;;;;;;4919016;29;20516;-71
2022/09/26 01:20:16;;;;;;;8.27;3.10;;;12.00;81.30;;;;;;4919140;29;20031;-71
2022/09/26 01:22:54;;;;;;;9.55;3.13;;;12.00;81.50;;;;;;4903552;29;20047;-72
2022/09/26 01:25:50;;;;;;;8.35;3.42;;;12.00;81.50;;;;;;4918280;28;20425;-70
2022/09/26 01:28:21;;;;;;;8.68;3.13;;;12.00;81.50;;;;;;4921449;29;20040;-72
2022/09/26 01:31:10;;;;;;;6.80;2.95;;;11.90;81.50;;;;;;4906122;29;20572;-72
2022/09/26 01:33:50;;;;;;;9.35;3.60;;;11.90;81.70;;;;;;4881762;29;20395;-72
2022/09/26 01:36:38;;;;;;;11.57;3.60;;;12.00;81.50;;;;;;4917822;29;20079;-72
2022/09/26 01:39:33;;;;;;;9.38;3.40;;;11.90;81.70;;;;;;4916584;29;20325;-73
2022/09/26 01:42:06;;;;;;;9.05;3.60;;;11.90;81.60;;;;;;4922123;29;20036;-71
2022/09/26 01:45:07;;;;;;;7.95;3.47;;;11.90;81.60;;;;;;4914946;28;20028;-71
2022/09/26 01:47:40;;;;;;;8.82;3.20;;;11.90;81.60;;;;;;4903833;29;20387;-71
2022/09/26 01:50:26;;;;;;;9.35;3.30;;;11.90;81.60;;;;;;4932535;29;20036;-75
2022/09/26 01:53:02;;;;;;;11.15;3.75;;;11.90;81.50;;;;;;4924854;29;20039;-71
2022/09/26 01:55:38;;;;;;;7.47;3.60;;;11.90;81.70;;;;;;4917538;28;20567;-74
2022/09/26 01:58:24;;;;;;;10.68;4.03;;;11.90;81.80;;;;;;4917900;28;20054;-73
2022/09/26 02:00:50;;;;;;;10.40;3.95;;;11.90;82.00;;;;;;4915211;29;20048;-75
2022/09/26 02:03:21;;;;;;;8.68;3.95;;;11.90;82.10;;;;;;4917959;29;20111;-73
2022/09/26 02:05:53;;;;;;;9.85;3.65;;;11.80;82.30;;;;;;4897471;29;20040;-72
2022/09/26 02:08:41;;;;;;;12.80;4.45;;;11.80;82.30;;;;;;4912002;29;20024;-71
2022/09/26 02:11:15;;;;;;;10.05;4.60;;;11.80;82.40;;;;;;4924315;29;20373;-72
2022/09/26 02:14:12;;;;;;;9.45;4.43;;;11.80;82.30;;;;;;4917345;28;20088;-72
2022/09/26 02:16:48;;;;;;;9.68;4.43;;;11.80;82.50;;;;;;4929228;29;20118;-74
2022/09/26 02:19:28;;;;;;;9.23;4.50;;;11.80;82.50;;;;;;4902816;29;20031;-72
2022/09/26 02:21:54;;;;;;;12.18;4.60;;;11.90;82.40;;;;;;4926980;29;20043;-72
2022/09/26 02:24:22;;;;;;;7.63;3.90;;;11.90;82.70;;;;;;4923609;29;20404;-73
2022/09/26 02:26:49;;;;;;;7.38;4.30;;;11.90;83.00;;;;;;4925168;29;20464;-74
2022/09/26 02:29:15;;;;;;;10.60;4.03;;;11.90;83.20;;;;;;4919231;29;20052;-73
2022/09/26 02:31:49;;;;;;;10.10;4.38;;;11.90;83.20;;;;;;4922700;29;20027;-73
2022/09/26 02:34:15;;;;;;;8.32;4.22;;;11.90;83.30;;;;;;4932968;28;20054;-72
2022/09/26 02:36:40;;;;;;;11.68;4.22;;;11.90;83.40;;;;;;4914009;29;20539;-71
2022/09/26 02:39:08;;;;;;;9.73;4.65;;;11.80;83.60;;;;;;4903217;29;20043;-76
2022/09/26 02:42:00;;;;;;;10.63;4.57;;;11.80;83.70;;;;;;4913352;29;20540;-71
2022/09/26 02:44:41;;;;;;;12.18;4.10;;;11.80;83.70;;;;;;4912900;28;20027;-72
2022/09/26 02:47:34;;;;;;;7.30;3.85;;;11.70;83.60;;;;;;4904488;29;20202;-72
2022/09/26 02:50:38;;;;;;;10.73;3.70;;;11.80;83.50;;;;;;4919258;28;20040;-72
2022/09/26 02:53:34;;;;;;;9.73;3.78;;;11.70;83.20;;;;;;4915797;29;20044;-72
2022/09/26 02:56:10;;;;;;;9.85;4.45;;;11.70;83.40;;;;;;4913877;29;20058;-72
2022/09/26 02:58:43;;;;;;;9.63;3.83;;;11.70;83.40;;;;;;4917123;29;20031;-74
2022/09/26 03:01:19;;;;;;;9.40;3.72;;;11.70;83.20;;;;;;4911519;29;20032;-74
2022/09/26 03:04:13;;;;;;;11.57;4.45;;;11.70;83.10;;;;;;4918748;28;20055;-73
2022/09/26 03:06:45;;;;;;;9.10;3.60;;;11.70;83.00;;;;;;4932014;29;20043;-75
2022/09/26 03:09:13;;;;;;;9.38;3.90;;;11.80;82.90;;;;;;4908546;29;20032;-72
2022/09/26 03:11:40;;;;;;;9.82;3.63;;;11.70;83.00;;;;;;4931352;28;20031;-73
2022/09/26 03:14:07;;;;;;;10.68;4.20;;;11.70;83.00;;;;;;4917569;28;20048;-75
2022/09/26 03:16:38;;;;;;;9.88;3.97;;;11.70;83.00;;;;;;4914523;29;20039;-72
2022/09/26 03:19:17;;;;;;;9.38;4.03;;;11.70;83.00;;;;;;4916664;29;20051;-72
2022/09/26 03:21:44;;;;;;;7.10;3.55;;;11.70;82.80;;;;;;4917662;29;20056;-75
2022/09/26 03:24:12;;;;;;;9.07;4.00;;;11.70;82.70;;;;;;4915857;29;20032;-77
2022/09/26 03:26:38;;;;;;;9.38;4.38;;;11.80;82.80;;;;;;4914808;29;20652;-72
2022/09/26 03:29:04;;;;;;;9.00;3.33;;;11.80;82.70;;;;;;4916817;28;20446;-74
2022/09/26 03:31:30;;;;;;;8.27;4.05;;;11.80;82.60;;;;;;4918020;29;20038;-72
2022/09/26 03:33:55;;;;;;;8.88;3.80;;;11.80;82.70;;;;;;4919118;29;20050;-72
2022/09/26 03:36:22;;;;;;;9.57;3.50;;;11.80;82.50;;;;;;4916961;29;20427;-74
2022/09/26 03:38:48;;;;;;;10.27;3.63;;;11.80;82.40;;;;;;4919329;29;20047;-72
2022/09/26 03:41:13;;;;;;;6.68;3.63;;;11.80;82.50;;;;;;4914228;29;20143;-73
2022/09/26 03:43:42;;;;;;;12.75;3.83;;;11.90;82.50;;;;;;4912347;29;20028;-73
2022/09/26 03:46:10;;;;;;;7.90;3.35;;;11.90;82.60;;;;;;4914694;29;20036;-72
2022/09/26 03:48:37;;;;;;;7.15;3.15;;;11.90;82.30;;;;;;4913490;29;20036;-72
2022/09/26 03:51:12;;;;;;;9.25;3.33;;;11.90;82.20;;;;;;4913681;29;20032;-73
2022/09/26 03:53:41;;;;;;;9.05;3.58;;;11.90;82.00;;;;;;4913547;29;20039;-75
2022/09/26 03:56:10;;;;;;;9.00;3.40;;;11.90;81.90;;;;;;4918806;29;20044;-72
2022/09/26 03:58:36;;;;;;;7.22;3.42;;;11.90;81.70;;;;;;4912204;29;20111;-75
2022/09/26 04:01:13;;;;;;;8.45;3.25;;;11.90;81.60;;;;;;4908339;29;20411;-72
2022/09/26 04:03:41;;;;;;;6.85;2.95;;;12.00;81.40;;;;;;4910286;29;21378;-72
2022/09/26 04:06:08;;;;;;;10.18;3.40;;;12.00;81.10;;;;;;4920106;29;20031;-76
2022/09/26 04:08:36;;;;;;;7.38;3.35;;;12.00;81.00;;;;;;4914092;28;20063;-73
2022/09/26 04:11:04;;;;;;;7.55;2.92;;;11.90;81.20;;;;;;4915178;29;20028;-72
2022/09/26 04:13:31;;;;;;;7.88;3.10;;;12.00;81.10;;;;;;4924745;28;20354;-73
2022/09/26 04:15:57;;;;;;;8.77;3.20;;;12.00;81.00;;;;;;4917285;29;20040;-73
2022/09/26 04:18:24;;;;;;;6.90;3.38;;;12.00;81.20;;;;;;4898739;29;20036;-72
2022/09/26 04:20:59;;;;;;;10.63;3.30;;;12.00;81.30;;;;;;4916715;29;20047;-72
2022/09/26 04:23:29;;;;;;;5.28;3.05;;;12.00;81.50;;;;;;4921383;29;20538;-75
2022/09/26 04:25:55;;;;;;;8.18;3.15;;;12.00;81.70;;;;;;4918495;28;20357;-72
2022/09/26 04:28:22;;;;;;;6.30;2.88;;;12.00;81.40;;;;;;4918132;29;20040;-75
2022/09/26 04:30:48;;;;;;;7.10;2.90;;;12.00;81.10;;;;;;4919669;29;20092;-75
2022/09/26 04:33:14;;;;;;;5.90;3.08;;;12.00;81.00;;;;;;4911939;29;20032;-74
2022/09/26 04:35:40;;;;;;;6.50;2.78;;;12.00;81.00;;;;;;4905780;29;20052;-72
2022/09/26 04:38:07;;;;;;;7.82;3.00;;;12.00;80.90;;;;;;4923650;29;20060;-72
2022/09/26 04:40:33;;;;;;;9.40;3.33;;;11.90;81.00;;;;;;4919450;29;20046;-73
2022/09/26 04:42:59;;;;;;;8.20;3.05;;;11.90;81.10;;;;;;4922562;29;20036;-72
2022/09/26 04:45:24;;;;;;;9.32;2.80;;;11.90;81.10;;;;;;4918806;29;20035;-73
2022/09/26 04:47:50;;;;;;;5.50;2.70;;;12.00;81.10;;;;;;4917703;29;20063;-73
2022/09/26 04:50:16;;;;;;;7.93;2.90;;;11.90;81.00;;;;;;4925318;28;20567;-71
2022/09/26 04:52:42;;;;;;;8.63;3.20;;;11.90;81.00;;;;;;4919724;29;20036;-72
2022/09/26 04:55:08;;;;;;;6.43;2.83;;;11.90;80.90;;;;;;4919839;28;20055;-71
2022/09/26 04:57:34;;;;;;;6.38;3.13;;;12.00;80.80;;;;;;4919148;29;20036;-72
2022/09/26 05:00:00;;;;;;;9.85;3.13;;;12.00;80.70;;;;;;4921454;29;20111;-72
2022/09/26 05:02:26;;;;;;;6.28;2.90;;;12.00;80.50;;;;;;4919734;29;20032;-72
2022/09/26 05:04:52;;;;;;;6.97;2.65;;;12.10;80.70;;;;;;4914852;29;20043;-72
2022/09/26 05:07:18;;;;;;;8.60;3.40;;;12.10;80.70;;;;;;4916024;29;20039;-72
2022/09/26 05:09:44;;;;;;;6.82;3.13;;;12.10;80.60;;;;;;4915577;29;20037;-72
2022/09/26 05:12:11;;;;;;;9.82;3.72;;;12.10;80.60;;;;;;4918302;29;20074;-71
2022/09/26 05:14:37;;;;;;;10.20;2.90;;;12.10;80.40;;;;;;4914846;29;20377;-73
2022/09/26 05:17:03;;;;;;;7.78;2.80;;;12.00;80.50;;;;;;4921274;29;20538;-75
2022/09/26 05:19:29;;;;;;;7.13;2.83;;;12.10;80.60;;;;;;4919448;29;20142;-71
2022/09/26 05:21:54;;;;;;;7.10;2.65;;;12.00;80.70;;;;;;4918919;29;20579;-72
2022/09/26 05:27:06;;;;;;;8.25;3.25;;;12.00;80.90;;;;;;4915561;29;20448;-72
2022/09/26 05:29:31;;;;;;;8.38;2.70;;;12.00;81.00;;;;;;4915082;29;20030;-71
2022/09/26 05:31:58;;;;;;;7.25;2.88;;;12.00;81.10;;;;;;4928683;29;21128;-74
2022/09/26 05:34:25;;;;;;;6.53;2.45;;;12.00;80.90;;;;;;4916346;28;20044;-72
2022/09/26 05:36:51;;;;;;;7.03;2.80;;;12.00;81.10;;;;;;4921954;29;20555;-72
2022/09/26 05:42:04;;;;;;;6.60;2.63;;;12.00;81.20;;;;;;4937728;29;20075;-74
2022/09/26 05:44:30;;;;;;;6.28;2.80;;;12.00;81.40;;;;;;4920055;29;20143;-72
2022/09/26 05:46:56;;;;;;;6.25;2.22;;;12.00;81.40;;;;;;4926485;29;20480;-72
2022/09/26 05:49:22;;;;;;;7.70;2.92;;;12.10;81.40;;;;;;4919850;29;20542;-73
2022/09/26 05:51:48;;;;;;;7.80;2.75;;;12.10;81.50;;;;;;4927112;29;20079;-73
2022/09/26 05:54:14;;;;;;;6.68;2.38;;;12.10;81.60;;;;;;4922114;29;20596;-73
2022/09/26 05:56:40;;;;;;;7.20;2.70;;;12.10;81.70;;;;;;4918187;29;20043;-72
2022/09/26 05:59:05;;;;;;;6.72;2.50;;;12.10;81.80;;;;;;4919403;29;20024;-76
2022/09/26 06:01:32;;;;;;;6.25;2.30;;;12.10;81.80;;;;;;4916136;28;20734;-75
2022/09/26 06:03:58;;;;;;;7.70;2.53;;;12.10;81.90;;;;;;4925561;28;20063;-77
2022/09/26 06:06:24;;;;;;;6.65;2.75;;;12.10;82.00;;;;;;4921135;29;20122;-75
2022/09/26 06:08:50;;;;;;;9.95;2.50;;;12.10;82.20;;;;;;4909757;29;20341;-74
2022/09/26 06:11:23;;;;;;;13.23;2.80;;;12.10;82.20;;;;;;4912459;29;20034;-75
2022/09/26 06:13:49;;;;;;;10.35;2.80;;;12.10;82.30;;;;;;4921900;29;20592;-77
2022/09/26 06:16:20;;;;;;;7.90;2.53;;;12.10;82.30;;;;;;4910391;29;20573;-75
2022/09/26 06:18:47;;;;;;;7.30;2.60;;;12.10;82.50;;;;;;4906271;28;20035;-74
2022/09/26 06:21:15;;;;;;;7.95;2.70;;;12.20;82.50;;;;;;4908717;29;20460;-75
2022/09/26 06:23:41;;;;;;;9.13;2.60;;;12.10;82.60;;;;;;4904198;29;20450;-75
2022/09/26 06:26:09;;;;;;;6.55;2.40;;;12.20;82.80;;;;;;4908215;29;20028;-73
2022/09/26 06:28:35;;;;;;;10.90;3.13;;;12.20;82.80;;;;;;4904614;29;20119;-76
2022/09/26 06:31:12;;;;;;;8.38;2.67;;;12.30;82.70;;;;;;4908675;29;20063;-80
2022/09/26 06:33:37;;;;;;;7.75;2.72;;;12.20;82.70;;;;;;4904362;28;20044;-79
2022/09/26 06:36:05;;;;;;;7.47;2.53;;;12.30;82.80;;;;;;4917108;29;20047;-74
2022/09/26 06:38:31;;;;;;;6.97;2.38;;;12.40;82.60;;;;;;4927389;28;20040;-74
2022/09/26 06:40:57;;;;;;;10.07;2.97;;;12.40;82.70;;;;;;4903980;29;20464;-76
2022/09/26 06:43:23;;;;;;;9.00;3.00;;;12.40;82.90;;;;;;4912206;29;20084;-74
2022/09/26 06:45:48;;;;;;;9.98;3.80;;;12.40;82.70;;;;;;4934006;28;20044;-77
2022/09/26 06:48:16;;;;;;;9.20;2.90;;;12.40;82.90;;;;;;4903415;29;20043;-74
2022/09/26 06:50:42;;;;;;;8.57;2.88;;;12.40;82.90;;;;;;4906247;29;20028;-80
2022/09/26 06:53:07;;;;;;;13.05;3.22;;;12.50;82.80;;;;;;4909593;29;20126;-80
2022/09/26 06:55:33;;;;;;;10.82;3.08;;;12.50;82.80;;;;;;4901407;29;20043;-79
2022/09/26 06:57:58;;;;;;;12.10;3.08;;;12.40;82.90;;;;;;4918896;29;20055;-79
2022/09/26 07:00:25;;;;;;;7.35;2.90;;;12.50;83.00;;;;;;4934555;28;20047;-74
2022/09/26 07:02:52;;;;;;;9.27;2.90;;;12.60;83.00;;;;;;4907713;29;20054;-74
2022/09/26 07:05:19;;;;;;;8.90;3.03;;;12.60;82.90;;;;;;4901782;29;20376;-77
2022/09/26 07:07:45;;;;;;;9.38;2.97;;;12.60;82.70;;;;;;4904927;29;20036;-78
2022/09/26 07:10:12;;;;;;;8.13;3.05;;;12.60;82.40;;;;;;4901607;29;20032;-83
2022/09/26 07:12:42;;;;;;;14.63;3.55;;;12.70;82.60;;;;;;4903101;29;20119;-74
2022/09/26 07:15:09;;;;;;;9.07;3.25;;;12.70;82.40;;;;;;4901860;29;20075;-76
2022/09/26 07:17:35;;;;;;;7.80;3.30;;;12.70;82.30;;;;;;4903205;29;20079;-74
2022/09/26 07:20:02;;;;;;;8.65;2.80;;;12.80;82.40;;;;;;4902321;29;20032;-76
2022/09/26 07:22:27;;;;;;;10.40;3.15;;;12.70;82.50;;;;;;4904555;29;20376;-76
2022/09/26 07:24:53;;;;;;;9.90;3.15;;;12.80;82.80;;;;;;4902479;29;20048;-74
2022/09/26 07:27:19;;;;;;;7.43;2.90;;;12.80;82.80;;;;;;4907273;29;20080;-75
2022/09/26 07:29:46;;;;;;;7.00;2.65;;;12.80;82.90;;;;;;4903439;29;20032;-77
2022/09/26 07:32:12;;;;;;;12.93;3.03;;;12.80;82.70;;;;;;4904771;29;20422;-76
2022/09/26 07:34:39;;;;;;;12.90;3.10;;;12.90;82.40;;;;;;4902211;28;20048;-75
2022/09/26 07:37:06;;;;;;;11.18;3.30;;;13.00;82.20;;;;;;4902928;29;20268;-76
2022/09/26 07:39:32;;;;;;;10.20;3.45;;;13.00;82.40;;;;;;4903170;29;20113;-78
2022/09/26 07:42:00;;;;;;;8.98;2.97;;;13.00;82.50;;;;;;4908699;29;20043;-75
2022/09/26 07:44:26;;;;;;;11.38;2.80;;;13.00;82.60;;;;;;4899073;29;20028;-76
2022/09/26 07:52:21;;;;;;;9.25;2.72;;;13.00;82.50;;;;;;4904477;29;20051;-75
2022/09/26 07:54:47;;;;;;;10.23;3.58;;;13.10;82.60;;;;;;4905413;28;20043;-75
2022/09/26 07:57:13;;;;;;;14.63;3.13;;;13.10;82.30;;;;;;4901725;29;20096;-75
2022/09/26 07:59:39;;;;;;;7.93;3.05;;;13.10;82.10;;;;;;4897708;29;20032;-76
2022/09/26 08:02:19;;;;;;;8.70;2.88;;;13.10;82.20;;;;;;4899893;29;20282;-75
2022/09/26 08:04:45;;;;;;;12.73;3.30;;;13.10;82.00;;;;;;4916584;28;20032;-76
2022/09/26 08:07:11;;;;;;;11.68;3.80;;;13.10;82.10;;;;;;4903079;29;20720;-79
2022/09/26 08:09:37;;;;;;;8.00;2.60;;;13.10;82.10;;;;;;4905137;29;20555;-75
2022/09/26 08:12:03;;;;;;;10.23;3.17;;;13.10;82.00;;;;;;4903028;29;20090;-78
2022/09/26 08:14:28;;;;;;;10.18;2.97;;;13.10;82.40;;;;;;4921647;28;20115;-75
2022/09/26 08:16:55;;;;;;;10.43;2.72;;;13.20;82.30;;;;;;4927058;28;20028;-75
2022/09/26 08:19:23;;;;;;;9.25;3.33;;;13.30;82.10;;;;;;4926677;28;20114;-74
2022/09/26 08:21:49;;;;;;;10.07;2.67;;;13.30;82.00;;;;;;4924677;29;20081;-76
2022/09/26 08:24:15;;;;;;;11.85;2.92;;;13.40;81.70;;;;;;4922957;28;20024;-76
2022/09/26 08:26:40;;;;;;;13.52;3.33;;;13.40;81.20;;;;;;4922335;29;20073;-76
2022/09/26 08:29:11;;;;;;;9.63;2.95;;;13.40;81.50;;;;;;4925177;28;20090;-75
2022/09/26 08:31:40;;;;;;;8.60;3.17;;;13.50;81.50;;;;;;4921278;29;20032;-75
2022/09/26 08:34:07;;;;;;;6.18;2.65;;;13.60;82.30;;;;;;4912738;28;20036;-75
2022/09/26 08:36:35;;;;;;;9.93;3.30;;;13.50;82.70;;;;;;4917817;29;20040;-76
2022/09/26 08:39:02;;;;;;;9.95;3.00;;;13.50;83.30;;;;;;4918538;28;20042;-75
2022/09/26 08:41:31;;;;;;;9.80;3.42;;;13.50;83.60;;;;;;4918568;29;20035;-76
2022/09/26 08:44:21;;;;;;;11.73;3.42;;;13.30;84.20;;;;;;4921368;29;20051;-78
2022/09/26 08:47:03;;;;;;;9.02;3.30;;;13.30;84.60;;;;;;4924375;29;20043;-76
2022/09/26 08:50:08;;;;;;;7.68;3.00;;;13.20;84.90;;;;;;4925714;29;20050;-75
2022/09/26 08:52:40;;;;;;;11.52;3.92;;;13.20;85.40;;;;;;4914155;29;20429;-74
2022/09/26 08:55:17;;;;;;;12.23;3.63;;;13.20;85.50;;;;;;4926312;29;20522;-78
2022/09/26 08:57:45;;;;;;;17.17;3.75;;;13.20;85.60;;;;;;4927510;29;20032;-75
2022/09/26 09:00:18;;;;;;;11.40;3.92;;;13.20;85.50;;;;;;4927785;28;20107;-78
2022/09/26 09:03:21;;;;;;;9.50;3.40;;;13.20;85.40;;;;;;4936994;28;20035;-77
2022/09/26 09:06:13;;;;;;;12.93;3.75;;;13.30;85.40;;;;;;4931134;28;20070;-75
2022/09/26 09:08:47;;;;;;;8.70;3.10;;;13.20;85.20;;;;;;4920715;28;20040;-76
2022/09/26 09:11:15;;;;;;;8.63;3.13;;;13.20;84.80;;;;;;4926835;29;20090;-76
2022/09/26 09:14:18;;;;;;;8.43;3.70;;;13.10;84.90;;;;;;4925301;28;20039;-74
2022/09/26 09:16:58;;;;;;;6.70;2.95;;;13.10;84.90;;;;;;4925091;28;20043;-78
2022/09/26 09:19:42;;;;;;;8.93;3.55;;;13.20;85.20;;;;;;4929524;28;20035;-77
2022/09/26 09:22:30;;;;;;;10.00;3.38;;;13.20;85.60;;;;;;4935984;28;20031;-75
2022/09/26 09:25:02;;;;;;;9.00;3.78;;;13.10;85.90;;;;;;4929036;28;20035;-81
2022/09/26 09:27:31;;;;;;;11.73;4.20;;;13.10;86.60;;;;;;4912306;29;20091;-75
2022/09/26 09:30:18;;;;;;;9.95;3.60;;;13.10;86.80;;;;;;4927708;28;20063;-74
2022/09/26 09:32:57;;;;;;;9.98;4.05;;;13.00;87.10;;;;;;4927337;29;20360;-79
2022/09/26 09:35:39;;;;;;;13.70;4.03;;;12.90;87.60;;;;;;4923746;28;20036;-75
2022/09/26 09:38:06;;;;;;;9.25;3.90;;;12.90;88.10;;;;;;4926575;29;20027;-76
2022/09/26 09:40:50;;;;;;;11.57;4.13;;;12.90;88.30;;;;;;4926715;28;20035;-76
2022/09/26 09:43:25;;;;;;;10.55;3.92;;;12.90;88.60;;;;;;4916271;29;20067;-79
2022/09/26 09:45:56;;;;;;;10.32;3.92;;;12.90;89.00;;;;;;4925410;28;20047;-77
2022/09/26 09:48:26;;;;;;;8.50;4.10;;;13.00;89.10;;;;;;4925710;29;20070;-75
2022/09/26 09:51:16;;;;;;;10.23;4.40;;;12.90;88.80;;;;;;4927771;29;20027;-74
2022/09/26 09:54:12;;;;;;;13.45;4.90;;;12.90;89.10;;;;;;4912643;29;20043;-77
2022/09/26 09:57:08;;;;;;;10.70;4.20;;;12.90;89.30;;;;;;4874947;29;20044;-74
2022/09/26 09:59:40;;;;;;;11.75;4.13;;;12.80;89.40;;;;;;4924679;28;20051;-75
2022/09/26 10:02:31;;;;;;;9.15;3.90;;;12.80;89.50;;;;;;4928418;29;20095;-77
2022/09/26 10:05:16;;;;;;;11.65;4.50;;;12.80;89.60;;;;;;4924912;28;20036;-74
2022/09/26 10:07:43;;;;;;;11.40;4.15;;;12.80;89.40;;;;;;4913419;29;20044;-72
2022/09/26 10:10:19;;;;;;;13.27;4.63;;;12.80;89.60;;;;;;4908487;28;20376;-77
2022/09/26 10:12:50;;;;;;;14.00;4.53;;;12.80;89.70;;;;;;4928969;29;20048;-75
2022/09/26 10:15:19;;;;;;;10.68;4.10;;;12.80;89.80;;;;;;4928928;28;20060;-74
2022/09/26 10:18:13;;;;;;;11.20;4.00;;;12.80;89.90;;;;;;4922231;29;20028;-74
2022/09/26 10:21:05;;;;;;;14.57;9.48;;;12.90;89.90;;;;;;4928176;28;20065;-79
2022/09/26 10:23:47;;;;;;;9.98;6.63;;;12.90;90.00;;;;;;4923285;28;20368;-74
2022/09/26 10:26:15;;;;;;;9.52;6.78;;;13.00;90.10;;;;;;4920691;29;20075;-75
2022/09/26 10:28:54;;;;;;;9.32;4.97;;;13.10;89.90;;;;;;4922484;28;20031;-76
2022/09/26 10:31:28;;;;;;;10.80;5.63;;;13.10;90.00;;;;;;4907440;29;20400;-75
2022/09/26 10:33:59;;;;;;;9.45;5.20;;;13.10;89.90;;;;;;4926106;28;20073;-74
2022/09/26 10:36:33;;;;;;;9.95;5.70;;;13.10;89.60;;;;;;4928564;29;20127;-75
2022/09/26 10:41:46;;;;;;;23.80;18.25;;;13.20;89.40;;;;;;4919394;28;19934;-81
2022/09/26 10:44:24;;;;;;;20.98;17.65;;;13.10;89.30;;;;;;4921191;28;20039;-75
2022/09/26 10:46:51;;;;;;;16.60;14.02;;;13.10;89.60;;;;;;4924627;29;20047;-76
2022/09/26 10:49:22;;;;;;;18.25;12.57;;;13.20;89.50;;;;;;4902983;29;20084;-81
2022/09/26 10:51:56;;;;;;;9.40;6.35;;;13.20;89.80;;;;;;4907358;29;20109;-77
2022/09/26 10:54:31;;;;;;;9.50;4.35;;;13.30;89.80;;;;;;4915615;28;20111;-76
2022/09/26 10:56:58;;;;;;;11.45;7.53;;;13.40;89.10;;;;;;4918930;29;20580;-80
2022/09/26 10:59:30;;;;;;;10.38;5.43;;;13.40;89.00;;;;;;4917304;29;20043;-77
2022/09/26 11:01:57;;;;;;;9.70;5.05;;;13.30;89.10;;;;;;4903616;29;20044;-75
2022/09/26 11:07:24;;;;;;;10.32;4.63;;;13.30;89.30;;;;;;4915629;29;20082;-78
2022/09/26 11:09:51;;;;;;;10.10;5.05;;;13.30;89.50;;;;;;4919571;28;20470;-75
2022/09/26 11:12:28;;;;;;;9.30;5.00;;;13.30;89.40;;;;;;4915290;29;20027;-84
2022/09/26 11:15:14;;;;;;;11.25;4.82;;;13.30;89.50;;;;;;4914693;28;20052;-77
2022/09/26 11:17:46;;;;;;;8.75;5.03;;;13.30;89.40;;;;;;4916236;29;20190;-76
2022/09/26 11:20:45;;;;;;;7.53;4.00;;;13.30;89.70;;;;;;4917714;28;20046;-75
2022/09/26 11:23:33;;;;;;;10.18;4.25;;;13.30;89.60;;;;;;4915206;29;20432;-76
2022/09/26 11:26:10;;;;;;;10.38;4.40;;;13.30;89.70;;;;;;4915814;29;20475;-76
2022/09/26 11:28:52;;;;;;;8.85;4.63;;;13.30;89.60;;;;;;4912941;29;20028;-80
2022/09/26 11:31:21;;;;;;;8.80;4.60;;;13.30;89.60;;;;;;4920049;29;20042;-79
2022/09/26 11:33:47;;;;;;;8.38;4.00;;;13.50;89.80;;;;;;4919324;28;20160;-78
2022/09/26 11:36:40;;;;;;;7.60;3.67;;;13.40;89.60;;;;;;4923647;29;20055;-76
2022/09/26 11:39:31;;;;;;;7.55;4.70;;;13.40;89.50;;;;;;4923347;28;20038;-76
2022/09/26 11:42:14;;;;;;;11.50;4.30;;;13.40;89.80;;;;;;4908209;29;20542;-77
2022/09/26 11:44:54;;;;;;;8.85;4.80;;;13.50;89.90;;;;;;4916320;29;20113;-75
2022/09/26 11:47:48;;;;;;;10.48;4.60;;;13.40;89.90;;;;;;4910082;29;20372;-77
2022/09/26 11:50:41;;;;;;;7.70;4.47;;;13.40;90.10;;;;;;4924407;29;20031;-81
2022/09/26 11:53:23;;;;;;;7.75;3.90;;;13.40;90.20;;;;;;4924232;29;20504;-75
2022/09/26 11:56:24;;;;;;;9.60;4.53;;;13.40;90.40;;;;;;4923421;29;20332;-78
2022/09/26 11:58:58;;;;;;;8.13;4.32;;;13.40;90.40;;;;;;4922437;28;20055;-78
2022/09/26 12:01:39;;;;;;;8.77;5.43;;;13.30;90.40;;;;;;4922704;29;20040;-78
2022/09/26 12:04:17;;;;;;;8.77;4.70;;;13.30;90.60;;;;;;4915884;29;20039;-79
2022/09/26 12:07:06;;;;;;;8.65;4.45;;;13.30;90.80;;;;;;4923116;29;20040;-76
2022/09/26 12:09:44;;;;;;;9.20;4.82;;;13.20;90.90;;;;;;4920551;29;20032;-78
2022/09/26 12:12:27;;;;;;;10.10;5.60;;;13.30;90.90;;;;;;4923307;29;20375;-75
2022/09/26 12:15:13;;;;;;;10.25;5.60;;;13.30;91.00;;;;;;4923549;29;20040;-75
2022/09/26 12:18:11;;;;;;;8.90;5.65;;;13.30;91.20;;;;;;4916844;29;20399;-75
2022/09/26 12:20:41;;;;;;;8.75;5.35;;;13.30;91.20;;;;;;4920937;28;20043;-76
2022/09/26 12:23:24;;;;;;;9.10;4.55;;;13.30;91.20;;;;;;4925571;29;20099;-79
2022/09/26 12:26:20;;;;;;;8.32;4.50;;;13.20;91.40;;;;;;4921625;29;20047;-75
2022/09/26 12:28:54;;;;;;;7.10;4.47;;;13.20;91.50;;;;;;4928269;28;20086;-78
2022/09/26 12:31:44;;;;;;;8.43;4.00;;;13.20;91.60;;;;;;4919244;29;20103;-77
2022/09/26 12:34:37;;;;;;;6.55;4.10;;;13.20;91.50;;;;;;4925369;29;20317;-76
2022/09/26 12:37:39;;;;;;;7.35;4.95;;;13.20;91.60;;;;;;4923108;29;20032;-76
2022/09/26 12:40:24;;;;;;;10.20;5.45;;;13.20;91.70;;;;;;4931866;28;20038;-77
2022/09/26 12:43:12;;;;;;;9.15;5.15;;;13.30;91.90;;;;;;4910995;29;20027;-75
2022/09/26 12:46:06;;;;;;;8.48;4.25;;;13.40;91.90;;;;;;4923746;29;20487;-76
2022/09/26 12:48:35;;;;;;;5.88;3.58;;;13.40;91.70;;;;;;4924717;29;20179;-76
2022/09/26 12:51:21;;;;;;;6.85;3.85;;;13.50;91.70;;;;;;4928049;29;20036;-76
2022/09/26 12:53:59;;;;;;;8.02;4.50;;;13.60;91.80;;;;;;4924374;28;20468;-80
2022/09/26 12:56:40;;;;;;;5.35;3.30;;;13.60;91.70;;;;;;4929281;29;20515;-77
2022/09/26 12:59:25;;;;;;;6.28;3.90;;;13.70;91.60;;;;;;4911987;28;20414;-77
2022/09/26 13:02:07;;;;;;;6.80;3.83;;;13.70;91.40;;;;;;4928931;29;20432;-77
2022/09/26 13:04:59;;;;;;;7.28;3.88;;;13.80;91.50;;;;;;4931886;28;20036;-75
2022/09/26 13:08:01;;;;;;;8.02;5.18;;;13.80;91.20;;;;;;4925657;29;20496;-77
2022/09/26 13:11:00;;;;;;;8.02;4.88;;;13.90;91.10;;;;;;4927247;29;20032;-77
2022/09/26 13:13:54;;;;;;;9.80;5.75;;;13.90;91.10;;;;;;4931830;29;20146;-78
2022/09/26 13:16:49;;;;;;;9.98;6.38;;;14.00;91.20;;;;;;4913470;29;20047;-76
2022/09/26 13:19:15;;;;;;;;;;;14.10;91.10;;;;;;4923113;29;20027;-77
2022/09/26 13:21:43;;;;;;;7.30;5.30;;;14.30;90.80;;;;;;4921858;29;19911;-77
2022/09/26 13:24:21;;;;;;;8.20;4.30;;;14.40;90.80;;;;;;4926924;29;21538;-77
2022/09/26 13:26:53;;;;;;;9.15;5.28;;;14.50;90.10;;;;;;4925673;28;20116;-77
2022/09/26 13:29:27;;;;;;;8.25;4.22;;;14.60;89.90;;;;;;4923924;29;20024;-75
2022/09/26 13:32:24;;;;;;;8.10;4.07;;;14.80;90.00;;;;;;4928903;29;20039;-76